createdAt,value
2022-11-20T00:01:40.500Z,7.90
2022-11-20T00:04:07.495Z,6.30
2022-11-20T00:06:34.211Z,7.90
2022-11-20T00:09:02.818Z,7.25
2022-11-20T00:11:32.196Z,6.72
2022-11-20T00:14:02.003Z,7.18
2022-11-20T00:16:31.157Z,6.38
2022-11-20T00:18:57.973Z,6.80
2022-11-20T00:21:26.575Z,8.27
2022-11-20T00:23:55.425Z,7.07
2022-11-20T00:26:23.933Z,7.03
2022-11-20T00:28:52.568Z,6.47
2022-11-20T00:31:20.931Z,6.57
2022-11-20T00:33:47.956Z,6.55
2022-11-20T00:36:16.536Z,6.18
2022-11-20T00:38:43.847Z,6.50
2022-11-20T00:41:12.868Z,6.82
2022-11-20T00:43:39.750Z,6.68
2022-11-20T00:46:08.320Z,6.60
2022-11-20T00:48:36.709Z,7.15
2022-11-20T00:51:03.530Z,8.23
2022-11-20T00:53:30.268Z,6.47
2022-11-20T00:55:58.352Z,10.40
2022-11-20T00:58:26.640Z,8.23
2022-11-20T01:00:53.555Z,7.25
2022-11-20T01:03:25.560Z,8.35
2022-11-20T01:05:55.134Z,8.82
2022-11-20T01:08:21.934Z,7.82
2022-11-20T01:10:48.738Z,7.20
2022-11-20T01:13:41.590Z,7.90
2022-11-20T01:16:10.481Z,6.85
2022-11-20T01:18:38.532Z,7.43
2022-11-20T01:21:10.191Z,7.15
2022-11-20T01:23:39.579Z,8.07
2022-11-20T01:26:08.831Z,10.88
2022-11-20T01:28:35.931Z,9.50
2022-11-20T01:31:12.114Z,8.02
2022-11-20T01:33:40.033Z,7.88
2022-11-20T01:36:09.483Z,8.43
2022-11-20T01:38:45.245Z,6.97
2022-11-20T01:41:32.370Z,8.88
2022-11-20T01:43:59.381Z,9.05
2022-11-20T01:46:26.317Z,7.97
2022-11-20T01:48:58.371Z,8.20
2022-11-20T01:51:30.647Z,11.52
2022-11-20T01:54:01.625Z,9.35
2022-11-20T01:56:30.533Z,8.30
2022-11-20T01:59:02.073Z,8.15
2022-11-20T02:01:29.284Z,7.07
2022-11-20T02:03:57.258Z,7.18
2022-11-20T02:06:29.022Z,8.65
2022-11-20T02:08:55.981Z,7.30
2022-11-20T02:11:22.905Z,7.85
2022-11-20T02:13:50.603Z,8.07
2022-11-20T02:16:22.353Z,7.68
2022-11-20T02:18:50.138Z,7.57
2022-11-20T02:21:29.342Z,7.47
2022-11-20T02:24:06.922Z,7.35
2022-11-20T02:26:38.606Z,6.05
2022-11-20T02:29:05.399Z,8.32
2022-11-20T02:31:38.233Z,8.05
2022-11-20T02:34:05.189Z,7.13
2022-11-20T02:36:33.771Z,7.03
2022-11-20T02:39:00.984Z,7.93
2022-11-20T02:41:34.410Z,7.88
2022-11-20T02:44:01.829Z,6.55
2022-11-20T02:46:29.237Z,7.63
2022-11-20T02:48:56.323Z,7.70
2022-11-20T02:51:23.441Z,6.93
2022-11-20T02:53:50.301Z,9.15
2022-11-20T02:56:17.364Z,7.05
2022-11-20T02:58:45.479Z,9.32
2022-11-20T03:01:12.545Z,7.82
2022-11-20T03:03:39.606Z,8.48
2022-11-20T03:06:07.088Z,8.63
2022-11-20T03:08:33.879Z,9.10
2022-11-20T03:11:04.128Z,9.23
2022-11-20T03:13:31.063Z,9.65
2022-11-20T03:15:59.258Z,9.60
2022-11-20T03:18:28.923Z,10.30
2022-11-20T03:20:58.897Z,8.20
2022-11-20T03:25:53.098Z,8.05
2022-11-20T03:28:19.889Z,7.80
2022-11-20T03:30:46.843Z,7.90
2022-11-20T03:33:14.988Z,9.18
2022-11-20T03:35:41.830Z,8.35
2022-11-20T03:38:08.563Z,6.68
2022-11-20T03:40:36.124Z,7.10
2022-11-20T03:43:02.869Z,7.80
2022-11-20T03:45:29.619Z,7.47
2022-11-20T03:47:56.356Z,7.95
2022-11-20T03:50:24.642Z,7.40
2022-11-20T03:52:51.328Z,6.93
2022-11-20T03:55:18.420Z,8.70
2022-11-20T03:57:45.239Z,7.57
2022-11-20T04:00:13.412Z,8.13
2022-11-20T04:02:40.166Z,6.90
2022-11-20T04:05:07.593Z,7.75
2022-11-20T04:07:36.542Z,7.55
2022-11-20T04:10:03.888Z,9.73
2022-11-20T04:12:33.298Z,6.82
2022-11-20T04:15:00.146Z,7.40
2022-11-20T04:17:27.263Z,9.93
2022-11-20T04:19:54.008Z,8.48
2022-11-20T04:22:20.735Z,7.07
2022-11-20T04:24:48.932Z,7.28
2022-11-20T04:27:15.725Z,7.70
2022-11-20T04:29:42.486Z,6.97
2022-11-20T04:32:09.567Z,6.95
2022-11-20T04:34:36.516Z,7.07
2022-11-20T04:37:03.199Z,10.25
2022-11-20T04:39:29.860Z,8.25
2022-11-20T04:42:16.313Z,7.45
2022-11-20T04:44:43.110Z,8.00
2022-11-20T04:47:09.812Z,9.38
2022-11-20T04:49:36.622Z,7.80
2022-11-20T04:52:03.618Z,7.25
2022-11-20T04:54:30.399Z,7.05
2022-11-20T04:56:58.671Z,8.25
2022-11-20T04:59:25.452Z,8.77
2022-11-20T05:01:52.443Z,10.80
2022-11-20T05:04:19.309Z,9.95
2022-11-20T05:06:46.675Z,8.02
2022-11-20T05:09:13.986Z,7.93
2022-11-20T05:11:40.749Z,7.53
2022-11-20T05:14:08.961Z,8.10
2022-11-20T05:16:37.108Z,8.68
2022-11-20T05:19:03.943Z,8.40
2022-11-20T05:21:31.538Z,7.72
2022-11-20T05:23:58.374Z,7.60
2022-11-20T05:26:25.127Z,7.93
2022-11-20T05:28:52.890Z,8.07
2022-11-20T05:31:27.290Z,7.57
2022-11-20T05:33:55.587Z,7.50
2022-11-20T05:36:22.374Z,7.80
2022-11-20T05:38:51.241Z,7.70
2022-11-20T05:41:20.170Z,7.32
2022-11-20T05:43:49.074Z,7.82
2022-11-20T05:46:17.826Z,7.20
2022-11-20T05:48:47.207Z,8.73
2022-11-20T05:51:17.194Z,8.25
2022-11-20T05:56:17.658Z,6.57
2022-11-20T05:58:45.030Z,8.32
2022-11-20T06:01:14.488Z,9.25
2022-11-20T06:03:43.405Z,8.90
2022-11-20T06:06:11.486Z,8.20
2022-11-20T06:08:38.264Z,7.95
2022-11-20T06:11:06.316Z,7.57
2022-11-20T06:13:34.031Z,8.80
2022-11-20T06:16:02.481Z,7.55
2022-11-20T06:18:31.710Z,7.63
2022-11-20T06:21:03.797Z,8.95
2022-11-20T06:23:33.431Z,11.00
2022-11-20T06:26:03.619Z,9.18
2022-11-20T06:28:30.908Z,9.18
2022-11-20T06:30:57.866Z,10.07
2022-11-20T06:33:25.035Z,8.75
2022-11-20T06:35:55.575Z,9.55
2022-11-20T06:38:26.557Z,8.27
2022-11-20T06:40:54.877Z,8.50
2022-11-20T06:43:21.964Z,8.30
2022-11-20T06:45:53.258Z,7.97
2022-11-20T06:48:20.054Z,8.38
2022-11-20T06:50:46.785Z,8.18
2022-11-20T06:53:13.627Z,7.25
2022-11-20T06:55:43.431Z,9.27
2022-11-20T06:58:11.669Z,7.68
2022-11-20T07:00:39.028Z,7.25
2022-11-20T07:03:06.550Z,7.68
2022-11-20T07:05:33.804Z,7.80
2022-11-20T07:08:00.719Z,7.65
2022-11-20T07:10:27.762Z,7.32
2022-11-20T07:12:55.047Z,7.25
2022-11-20T07:15:25.524Z,8.57
2022-11-20T07:17:53.273Z,8.32
2022-11-20T07:20:20.082Z,8.45
2022-11-20T07:22:47.024Z,7.07
2022-11-20T07:25:13.957Z,7.15
2022-11-20T07:27:40.847Z,8.40
2022-11-20T07:30:08.384Z,7.00
2022-11-20T07:32:37.797Z,7.85
2022-11-20T07:35:05.314Z,8.50
2022-11-20T07:37:35.292Z,8.10
2022-11-20T07:40:02.364Z,8.23
2022-11-20T07:42:29.449Z,7.68
2022-11-20T07:44:56.849Z,7.88
2022-11-20T07:47:23.810Z,7.93
2022-11-20T07:49:52.622Z,7.75
2022-11-20T07:52:19.505Z,10.20
2022-11-20T07:54:46.354Z,8.43
2022-11-20T07:57:13.200Z,9.23
2022-11-20T07:59:40.299Z,9.50
2022-11-20T08:02:07.314Z,8.52
2022-11-20T08:04:34.292Z,10.02
2022-11-20T08:07:02.675Z,10.15
2022-11-20T08:09:30.082Z,12.38
2022-11-20T08:12:15.351Z,9.43
2022-11-20T08:14:42.163Z,9.13
2022-11-20T08:17:09.018Z,10.45
2022-11-20T08:19:35.880Z,9.93
2022-11-20T08:22:04.165Z,10.38
2022-11-20T08:24:31.199Z,9.15
2022-11-20T08:26:58.695Z,10.50
2022-11-20T08:29:25.666Z,10.20
2022-11-20T08:31:52.509Z,9.80
2022-11-20T08:34:19.829Z,13.20
2022-11-20T08:36:46.807Z,11.27
2022-11-20T08:39:15.637Z,9.88
2022-11-20T08:41:42.532Z,10.63
2022-11-20T08:44:09.887Z,15.88
2022-11-20T08:46:38.442Z,14.43
2022-11-20T08:49:05.892Z,13.05
2022-11-20T08:51:33.544Z,11.30
2022-11-20T08:54:00.472Z,10.93
2022-11-20T08:56:28.950Z,9.52
2022-11-20T08:59:18.285Z,10.50
2022-11-20T09:01:42.527Z,10.82
2022-11-20T09:04:09.467Z,10.23
2022-11-20T09:06:36.297Z,10.18
2022-11-20T09:09:06.607Z,10.57
2022-11-20T09:11:36.112Z,12.40
2022-11-20T09:14:03.894Z,10.73
2022-11-20T09:16:30.776Z,10.05
2022-11-20T09:19:28.122Z,26.00
2022-11-20T09:21:44.412Z,14.55
2022-11-20T09:24:11.490Z,44.50
2022-11-20T09:26:39.729Z,13.45
2022-11-20T09:29:06.952Z,9.70
2022-11-20T09:34:17.988Z,13.98
2022-11-20T09:36:45.046Z,25.45
2022-11-20T09:39:11.987Z,11.77
2022-11-20T09:42:10.698Z,10.88
2022-11-20T09:44:50.961Z,11.10
2022-11-20T09:47:28.383Z,10.27
2022-11-20T09:50:08.165Z,11.73
2022-11-20T09:52:47.116Z,21.67
2022-11-20T09:55:15.943Z,9.85
2022-11-20T09:57:48.222Z,10.20
2022-11-20T10:00:16.583Z,9.18
2022-11-20T10:02:49.410Z,9.07
2022-11-20T10:05:19.913Z,9.77
2022-11-20T10:07:56.360Z,13.10
2022-11-20T10:10:38.582Z,9.48
2022-11-20T10:13:26.299Z,9.15
2022-11-20T10:16:03.747Z,12.25
2022-11-20T10:18:43.949Z,10.43
2022-11-20T10:21:20.327Z,6.47
2022-11-20T10:24:00.904Z,8.32
2022-11-20T10:26:35.118Z,6.60
2022-11-20T10:29:11.754Z,6.60
2022-11-20T10:31:41.250Z,8.82
2022-11-20T10:34:22.617Z,8.82
2022-11-20T10:36:56.325Z,11.05
2022-11-20T10:39:32.757Z,13.82
2022-11-20T10:42:01.792Z,9.57
2022-11-20T10:44:55.162Z,9.65
2022-11-20T10:47:23.599Z,9.10
2022-11-20T10:49:54.477Z,9.07
2022-11-20T10:52:29.927Z,8.82
2022-11-20T10:55:05.241Z,8.90
2022-11-20T10:57:47.982Z,7.68
2022-11-20T11:00:18.264Z,7.55
2022-11-20T11:02:48.664Z,7.38
2022-11-20T11:05:36.263Z,6.93
2022-11-20T11:08:05.815Z,7.22
2022-11-20T11:10:42.363Z,7.45
2022-11-20T11:13:22.982Z,9.45
2022-11-20T11:15:54.912Z,7.47
2022-11-20T11:18:27.328Z,7.47
2022-11-20T11:20:55.251Z,8.68
2022-11-20T11:23:33.373Z,9.23
2022-11-20T11:26:06.311Z,8.85
2022-11-20T11:28:36.563Z,9.63
2022-11-20T11:31:09.639Z,9.43
2022-11-20T11:33:37.008Z,9.02
2022-11-20T11:36:17.786Z,10.10
2022-11-20T11:38:45.303Z,9.18
2022-11-20T11:41:17.710Z,9.88
2022-11-20T11:44:12.144Z,9.50
2022-11-20T11:46:45.277Z,8.57
2022-11-20T11:49:18.768Z,14.88
2022-11-20T11:52:01.358Z,10.13
2022-11-20T11:54:33.584Z,9.95
2022-11-20T11:57:02.984Z,9.82
2022-11-20T11:59:40.180Z,14.30
2022-11-20T12:05:21.476Z,10.80
2022-11-20T12:07:50.736Z,11.18
2022-11-20T12:10:23.204Z,10.38
2022-11-20T12:13:32.281Z,11.55
2022-11-20T12:16:00.129Z,10.57
2022-11-20T12:18:29.610Z,12.00
2022-11-20T12:21:07.088Z,11.50
2022-11-20T12:23:46.836Z,12.95
2022-11-20T12:26:36.460Z,12.13
2022-11-20T12:29:12.115Z,13.23
2022-11-20T12:34:32.566Z,21.05
2022-11-20T12:37:13.058Z,15.45
2022-11-20T12:39:42.764Z,16.92
2022-11-20T12:45:35.457Z,14.23
2022-11-20T12:48:16.856Z,13.73
2022-11-20T12:51:14.721Z,15.73
2022-11-20T12:53:52.386Z,14.70
2022-11-20T12:56:30.731Z,14.98
2022-11-20T12:59:10.356Z,14.07
2022-11-20T13:01:45.672Z,15.25
2022-11-20T13:04:25.843Z,18.50
2022-11-20T13:06:56.157Z,13.70
2022-11-20T13:09:24.837Z,15.60
2022-11-20T13:12:09.904Z,14.48
2022-11-20T13:14:41.254Z,16.27
2022-11-20T13:17:14.103Z,19.38
2022-11-20T13:19:41.270Z,41.97
2022-11-20T13:22:10.664Z,17.00
2022-11-20T13:24:37.518Z,16.00
2022-11-20T13:27:20.479Z,16.60
2022-11-20T13:30:01.465Z,16.58
2022-11-20T13:32:33.056Z,15.45
2022-11-20T13:35:01.840Z,18.23
2022-11-20T13:37:33.015Z,18.25
2022-11-20T13:40:23.246Z,16.48
2022-11-20T13:42:58.325Z,15.88
2022-11-20T13:45:27.980Z,16.25
2022-11-20T13:47:55.695Z,17.20
2022-11-20T13:50:39.815Z,13.60
2022-11-20T13:53:22.871Z,24.42
2022-11-20T13:55:55.803Z,16.10
2022-11-20T13:58:33.583Z,18.23
2022-11-20T14:01:10.223Z,15.05
2022-11-20T14:04:04.681Z,39.35
2022-11-20T14:06:28.530Z,16.38
2022-11-20T14:08:57.711Z,17.23
2022-11-20T14:11:26.504Z,14.95
2022-11-20T14:13:56.211Z,15.27
2022-11-20T14:18:50.332Z,14.65
2022-11-20T14:21:24.317Z,18.90
2022-11-20T14:23:54.170Z,16.17
2022-11-20T14:28:53.019Z,12.98
2022-11-20T14:31:25.159Z,12.65
2022-11-20T14:33:54.294Z,37.67
2022-11-20T15:55:09.403Z,18.17
2022-11-20T16:23:47.284Z,18.25
2022-11-20T16:26:17.981Z,20.40
2022-11-20T16:28:49.537Z,21.60
2022-11-20T16:31:23.330Z,20.67
2022-11-20T16:33:52.381Z,21.25
2022-11-20T16:36:20.664Z,20.58
2022-11-20T16:41:33.028Z,19.50
2022-11-20T16:44:01.490Z,20.20
2022-11-20T16:46:32.378Z,19.98
2022-11-20T16:52:03.854Z,17.80
2022-11-20T17:22:19.004Z,15.38
2022-11-20T17:50:32.194Z,17.25
2022-11-20T17:52:59.127Z,16.25
2022-11-20T17:55:26.063Z,17.85
2022-11-20T17:57:52.903Z,15.75
2022-11-20T18:00:20.247Z,16.08
2022-11-20T18:02:47.466Z,17.23
2022-11-20T18:05:15.776Z,16.38
2022-11-20T18:07:44.365Z,15.23
2022-11-20T18:10:11.431Z,16.23
2022-11-20T18:12:38.406Z,16.42
2022-11-20T18:15:05.856Z,16.60
2022-11-20T18:17:32.674Z,14.57
2022-11-20T18:20:28.291Z,15.57
2022-11-20T18:22:47.701Z,13.73
2022-11-20T18:25:14.613Z,13.75
2022-11-20T18:27:41.632Z,16.02
2022-11-20T18:30:11.139Z,16.10
2022-11-20T18:32:38.350Z,14.77
2022-11-20T18:35:06.174Z,17.92
2022-11-20T18:37:32.929Z,14.68
2022-11-20T18:40:01.187Z,15.35
2022-11-20T18:42:46.300Z,16.45
2022-11-20T18:45:13.152Z,21.42
2022-11-20T18:47:40.405Z,17.27
2022-11-20T18:50:08.846Z,15.35
2022-11-20T18:52:39.907Z,17.98
2022-11-20T18:55:09.000Z,20.05
2022-11-20T18:57:36.493Z,16.02
2022-11-20T19:00:09.339Z,16.13
2022-11-20T19:02:41.606Z,17.08
2022-11-20T19:05:16.177Z,18.00
2022-11-20T19:07:43.350Z,16.42
2022-11-20T19:10:12.456Z,16.58
2022-11-20T19:12:40.115Z,19.48
2022-11-20T19:15:07.712Z,20.05
2022-11-20T19:17:34.824Z,20.13
2022-11-20T19:20:01.655Z,18.17
2022-11-20T19:22:28.468Z,24.55
2022-11-20T19:24:55.399Z,18.30
2022-11-20T19:27:23.843Z,18.13
2022-11-20T19:29:50.576Z,21.20
2022-11-20T19:32:17.498Z,19.30
2022-11-20T19:34:44.302Z,20.02
2022-11-20T19:37:11.177Z,19.08
2022-11-20T19:39:38.018Z,16.58
2022-11-20T19:42:05.906Z,16.92
2022-11-20T19:44:34.267Z,20.60
2022-11-20T19:47:03.232Z,15.13
2022-11-20T19:49:30.132Z,17.55
2022-11-20T19:51:57.124Z,14.18
2022-11-20T19:54:24.134Z,13.07
2022-11-20T19:56:51.000Z,17.27
2022-11-20T19:59:17.870Z,12.98
2022-11-20T20:01:46.288Z,13.50
2022-11-20T20:04:14.138Z,15.60
2022-11-20T20:06:41.823Z,15.95
2022-11-20T20:09:18.589Z,13.43
2022-11-20T20:14:29.641Z,13.38
2022-11-20T20:16:58.127Z,14.98
2022-11-20T20:19:25.560Z,13.32
2022-11-20T20:21:52.734Z,12.65
2022-11-20T20:24:20.041Z,11.23
2022-11-20T20:26:46.945Z,11.32
2022-11-20T20:29:13.907Z,11.68
2022-11-20T20:31:40.915Z,11.65
2022-11-20T20:34:09.118Z,10.75
2022-11-20T20:36:35.989Z,12.43
2022-11-20T20:39:03.092Z,11.27
2022-11-20T20:41:30.295Z,11.32
2022-11-20T20:44:15.922Z,11.02
2022-11-20T20:46:43.934Z,11.05
2022-11-20T20:49:12.330Z,11.20
2022-11-20T20:51:39.257Z,10.80
2022-11-20T20:54:06.268Z,10.07
2022-11-20T20:56:33.122Z,10.68
2022-11-20T20:58:59.913Z,10.02
2022-11-20T21:01:28.880Z,11.23
2022-11-20T21:03:56.548Z,10.25
2022-11-20T21:06:25.010Z,10.55
2022-11-20T21:08:51.806Z,9.20
2022-11-20T21:11:20.377Z,10.43
2022-11-20T21:13:48.335Z,9.95
2022-11-20T21:16:16.803Z,10.85
2022-11-20T21:18:44.316Z,9.45
2022-11-20T21:21:33.172Z,9.68
2022-11-20T21:24:02.705Z,9.70
2022-11-20T21:29:11.707Z,8.73
2022-11-20T22:02:39.269Z,6.47
2022-11-20T22:05:09.066Z,8.93
2022-11-20T22:10:25.115Z,6.25
